Aérodrome :
LOGIN :

S'inscrire | Disclaimer

   EN    FR    IT 

 










Légende :    VFR   VFR Marginal   IFR   IFR Intensif   IFR Très Intensif
Visi : 
Plafond : 
>= 8 km
>= 3000ft
5 à 8 km
1000 à 3000 ft
1500m à 5 km
500 à 1000 ft
800 à 1500m
200 à 500 ft
< 800m
< 200 ft
Symboles :   Orages  Brouillard  Fortes neiges  Fortes précipitations  Vent > 20 kt
SIGMETs :   Divers  Orages  Givrage  Turbulence  Onde Orograph.  Cendres Volcan.







- Altitude de l'aérodrome : 776 ft
- Code IATA : RMS


ETAR - Ramstein Air Base

DERNIER METAR :
  • 181659Z 25008KT 9999 FEW048 SCT110 04/01 A2962 RMK AO2A SLP043 $

METARs EXPIRÉS :
  • 181556Z 27011KT 9999 BKN040 07/02 A2960 RMK AO2A SLP034 T00730022 $
  • 181506Z 26013G18KT 9999 SCT070 09/02 A2958 RMK AO2A SLP026 $
  • 181456Z 26014G22KT 9999 SCT070 09/02 A2958 RMK AO2A PK WND 28036/08 SLP026 60000 T00870018 52018 $

TAF AMD TAF ETAR
Valide du 18 à 16h jusqu'au 19 à 16h UTC


181636Z 1816/1916 27012KT 8000 -SHRA BKN020 610208 520004 QNH2944INS
TEMPO 1816/1818 27025G35KT
BECMG 1817/1818 27015G25KT 8000 -SHRA BKN020 610208 QNH2952INS
BECMG 1900/1901 26010G20KT 8000 -SHRA SCT020 BKN040 610406 QNH2962INS
BECMG 1904/1905 25010G20KT 9999 NSW BKN020 610208 QNH2970INS TX09/1914Z TN01/1905Z
Pas de NOTAMs connus pour ce terrain.



MET'MAP, la Météo Aéronautique d'un coup d'oeil ! - Copyright ORBIFLY Décembre 2007 - Disclaimer

ORBIFLY MET'MAP TEAM :

Programmation & Développement : Alexandra Zaïnal
Conception & Développement : Baudouin d'Aumeries
Co-Programmation & Développement : Marc-Olivier Méhu
Soutien technique & logistique : Manuel Goepfert

Contact : metmap@orbifly.com




SOURCES & CREDITS :

   NOAA